sensor_id;sensor_type;location;lat;lon;timestamp;temperature;humidity
10459;DHT22;5277;48.722;8.736;2023-06-24T00:00:28;15.00;99.90
10459;DHT22;5277;48.722;8.736;2023-06-24T00:02:54;14.90;99.90
10459;DHT22;5277;48.722;8.736;2023-06-24T00:05:20;14.80;99.90
10459;DHT22;5277;48.722;8.736;2023-06-24T00:07:45;14.80;99.90
10459;DHT22;5277;48.722;8.736;2023-06-24T00:10:12;14.80;99.90
10459;DHT22;5277;48.722;8.736;2023-06-24T00:12:38;14.80;99.90
10459;DHT22;5277;48.722;8.736;2023-06-24T00:15:06;14.60;99.90
10459;DHT22;5277;48.722;8.736;2023-06-24T00:17:31;14.70;99.90
10459;DHT22;5277;48.722;8.736;2023-06-24T00:19:57;14.60;99.90
10459;DHT22;5277;48.722;8.736;2023-06-24T00:22:23;14.60;99.90
10459;DHT22;5277;48.722;8.736;2023-06-24T00:24:48;14.50;99.90
10459;DHT22;5277;48.722;8.736;2023-06-24T00:27:15;14.50;99.90
10459;DHT22;5277;48.722;8.736;2023-06-24T00:29:41;14.50;99.90
10459;DHT22;5277;48.722;8.736;2023-06-24T00:32:07;14.50;99.90
10459;DHT22;5277;48.722;8.736;2023-06-24T00:34:34;14.50;99.90
10459;DHT22;5277;48.722;8.736;2023-06-24T00:36:59;14.50;99.90
10459;DHT22;5277;48.722;8.736;2023-06-24T00:39:25;14.50;99.90
10459;DHT22;5277;48.722;8.736;2023-06-24T00:41:50;14.50;99.90
10459;DHT22;5277;48.722;8.736;2023-06-24T00:44:16;14.40;99.90
10459;DHT22;5277;48.722;8.736;2023-06-24T00:46:42;14.40;99.90
10459;DHT22;5277;48.722;8.736;2023-06-24T00:49:08;14.50;99.90
10459;DHT22;5277;48.722;8.736;2023-06-24T00:51:33;14.40;99.90
10459;DHT22;5277;48.722;8.736;2023-06-24T00:54:01;14.30;99.90
10459;DHT22;5277;48.722;8.736;2023-06-24T00:56:37;14.10;99.90
10459;DHT22;5277;48.722;8.736;2023-06-24T00:59:08;14.20;99.90
10459;DHT22;5277;48.722;8.736;2023-06-24T01:01:35;14.20;99.90
10459;DHT22;5277;48.722;8.736;2023-06-24T01:04:02;14.20;99.90
10459;DHT22;5277;48.722;8.736;2023-06-24T01:06:29;14.20;99.90
10459;DHT22;5277;48.722;8.736;2023-06-24T01:09:02;14.20;99.90
10459;DHT22;5277;48.722;8.736;2023-06-24T01:11:29;14.30;99.90
10459;DHT22;5277;48.722;8.736;2023-06-24T01:13:55;14.20;99.90
10459;DHT22;5277;48.722;8.736;2023-06-24T01:16:56;14.20;99.90
10459;DHT22;5277;48.722;8.736;2023-06-24T01:25:13;14.20;99.90
10459;DHT22;5277;48.722;8.736;2023-06-24T01:33:26;14.00;99.90
10459;DHT22;5277;48.722;8.736;2023-06-24T01:35:54;13.90;99.90
10459;DHT22;5277;48.722;8.736;2023-06-24T01:38:40;13.90;99.90
10459;DHT22;5277;48.722;8.736;2023-06-24T01:41:07;13.90;99.90
10459;DHT22;5277;48.722;8.736;2023-06-24T01:43:36;14.00;99.90
10459;DHT22;5277;48.722;8.736;2023-06-24T01:46:03;13.90;99.90
10459;DHT22;5277;48.722;8.736;2023-06-24T01:48:32;14.00;99.90
10459;DHT22;5277;48.722;8.736;2023-06-24T01:51:19;13.90;99.90
10459;DHT22;5277;48.722;8.736;2023-06-24T01:53:51;13.90;99.90
10459;DHT22;5277;48.722;8.736;2023-06-24T01:56:19;13.80;99.90
10459;DHT22;5277;48.722;8.736;2023-06-24T01:58:47;13.80;99.90
10459;DHT22;5277;48.722;8.736;2023-06-24T02:01:14;13.70;99.90
10459;DHT22;5277;48.722;8.736;2023-06-24T02:03:41;13.80;99.90
10459;DHT22;5277;48.722;8.736;2023-06-24T02:06:08;13.80;99.90
10459;DHT22;5277;48.722;8.736;2023-06-24T02:08:36;13.70;99.90
10459;DHT22;5277;48.722;8.736;2023-06-24T02:11:04;13.70;99.90
10459;DHT22;5277;48.722;8.736;2023-06-24T02:13:31;13.70;99.90
10459;DHT22;5277;48.722;8.736;2023-06-24T02:16:01;13.70;99.90
10459;DHT22;5277;48.722;8.736;2023-06-24T02:18:28;13.70;99.90
10459;DHT22;5277;48.722;8.736;2023-06-24T02:20:55;13.70;99.90
10459;DHT22;5277;48.722;8.736;2023-06-24T02:23:22;13.70;99.90
10459;DHT22;5277;48.722;8.736;2023-06-24T02:25:49;13.70;99.90
10459;DHT22;5277;48.722;8.736;2023-06-24T02:28:16;13.70;99.90
10459;DHT22;5277;48.722;8.736;2023-06-24T02:30:43;13.60;99.90
10459;DHT22;5277;48.722;8.736;2023-06-24T02:33:09;13.50;99.90
10459;DHT22;5277;48.722;8.736;2023-06-24T02:35:40;13.50;99.90
10459;DHT22;5277;48.722;8.736;2023-06-24T02:38:07;13.50;99.90
10459;DHT22;5277;48.722;8.736;2023-06-24T02:40:33;13.50;99.90
10459;DHT22;5277;48.722;8.736;2023-06-24T02:42:59;13.60;99.90
10459;DHT22;5277;48.722;8.736;2023-06-24T02:45:25;13.60;99.90
10459;DHT22;5277;48.722;8.736;2023-06-24T02:47:52;13.50;99.90
10459;DHT22;5277;48.722;8.736;2023-06-24T02:50:19;13.50;99.90
10459;DHT22;5277;48.722;8.736;2023-06-24T02:52:46;13.50;99.90
10459;DHT22;5277;48.722;8.736;2023-06-24T02:55:13;13.50;99.90
10459;DHT22;5277;48.722;8.736;2023-06-24T02:57:39;13.50;99.90
10459;DHT22;5277;48.722;8.736;2023-06-24T03:00:06;13.50;99.90
10459;DHT22;5277;48.722;8.736;2023-06-24T03:02:38;13.50;99.90
10459;DHT22;5277;48.722;8.736;2023-06-24T03:05:05;13.50;99.90
10459;DHT22;5277;48.722;8.736;2023-06-24T03:07:31;13.50;99.90
10459;DHT22;5277;48.722;8.736;2023-06-24T03:10:01;13.40;99.90
10459;DHT22;5277;48.722;8.736;2023-06-24T03:12:28;13.40;99.90
10459;DHT22;5277;48.722;8.736;2023-06-24T03:14:54;13.40;99.90
10459;DHT22;5277;48.722;8.736;2023-06-24T03:17:20;13.40;99.90
10459;DHT22;5277;48.722;8.736;2023-06-24T03:19:45;13.40;99.90
10459;DHT22;5277;48.722;8.736;2023-06-24T03:22:11;13.40;99.90
10459;DHT22;5277;48.722;8.736;2023-06-24T03:24:37;13.40;99.90
10459;DHT22;5277;48.722;8.736;2023-06-24T03:27:03;13.40;99.90
10459;DHT22;5277;48.722;8.736;2023-06-24T03:29:28;13.40;99.90
10459;DHT22;5277;48.722;8.736;2023-06-24T03:31:54;13.40;99.90
10459;DHT22;5277;48.722;8.736;2023-06-24T03:34:20;13.40;99.90
10459;DHT22;5277;48.722;8.736;2023-06-24T03:36:45;13.30;99.90
10459;DHT22;5277;48.722;8.736;2023-06-24T03:39:11;13.30;99.90
10459;DHT22;5277;48.722;8.736;2023-06-24T03:41:36;13.20;99.90
10459;DHT22;5277;48.722;8.736;2023-06-24T03:44:02;13.30;99.90
10459;DHT22;5277;48.722;8.736;2023-06-24T03:46:28;13.20;99.90
10459;DHT22;5277;48.722;8.736;2023-06-24T03:48:58;13.20;99.90
10459;DHT22;5277;48.722;8.736;2023-06-24T03:51:24;13.20;99.90
10459;DHT22;5277;48.722;8.736;2023-06-24T03:53:49;13.20;99.90
10459;DHT22;5277;48.722;8.736;2023-06-24T03:56:17;13.30;99.90
10459;DHT22;5277;48.722;8.736;2023-06-24T03:58:42;13.20;99.90
10459;DHT22;5277;48.722;8.736;2023-06-24T04:01:08;13.30;99.90
10459;DHT22;5277;48.722;8.736;2023-06-24T04:03:34;13.30;99.90
10459;DHT22;5277;48.722;8.736;2023-06-24T04:06:00;13.40;99.90
10459;DHT22;5277;48.722;8.736;2023-06-24T04:08:27;13.30;99.90
10459;DHT22;5277;48.722;8.736;2023-06-24T04:10:56;13.40;99.90
10459;DHT22;5277;48.722;8.736;2023-06-24T04:13:22;13.40;99.90
10459;DHT22;5277;48.722;8.736;2023-06-24T04:15:48;13.50;99.90
10459;DHT22;5277;48.722;8.736;2023-06-24T04:18:13;13.60;99.90
10459;DHT22;5277;48.722;8.736;2023-06-24T04:20:39;13.60;99.90
10459;DHT22;5277;48.722;8.736;2023-06-24T04:23:05;13.60;99.90
10459;DHT22;5277;48.722;8.736;2023-06-24T04:25:31;13.60;99.90
10459;DHT22;5277;48.722;8.736;2023-06-24T04:27:57;13.60;99.90
10459;DHT22;5277;48.722;8.736;2023-06-24T04:30:23;13.60;99.90
10459;DHT22;5277;48.722;8.736;2023-06-24T04:32:48;13.70;99.90
10459;DHT22;5277;48.722;8.736;2023-06-24T04:35:14;13.70;99.90
10459;DHT22;5277;48.722;8.736;2023-06-24T04:37:39;13.80;99.90
10459;DHT22;5277;48.722;8.736;2023-06-24T04:40:05;13.80;99.90
10459;DHT22;5277;48.722;8.736;2023-06-24T04:42:31;13.90;99.90
10459;DHT22;5277;48.722;8.736;2023-06-24T04:44:57;13.80;99.90
10459;DHT22;5277;48.722;8.736;2023-06-24T04:47:22;13.90;99.90
10459;DHT22;5277;48.722;8.736;2023-06-24T04:49:48;13.90;99.90
10459;DHT22;5277;48.722;8.736;2023-06-24T04:52:13;13.90;99.90
10459;DHT22;5277;48.722;8.736;2023-06-24T04:54:39;14.00;99.90
10459;DHT22;5277;48.722;8.736;2023-06-24T04:57:08;14.10;99.90
10459;DHT22;5277;48.722;8.736;2023-06-24T04:59:34;14.10;99.90
10459;DHT22;5277;48.722;8.736;2023-06-24T05:02:00;14.20;99.90
10459;DHT22;5277;48.722;8.736;2023-06-24T05:04:25;14.10;99.90
10459;DHT22;5277;48.722;8.736;2023-06-24T05:06:51;14.20;99.90
10459;DHT22;5277;48.722;8.736;2023-06-24T05:09:17;14.20;99.90
10459;DHT22;5277;48.722;8.736;2023-06-24T05:11:43;14.20;99.90
10459;DHT22;5277;48.722;8.736;2023-06-24T05:14:10;14.30;99.90
10459;DHT22;5277;48.722;8.736;2023-06-24T05:16:35;14.30;99.90
10459;DHT22;5277;48.722;8.736;2023-06-24T05:19:01;14.30;99.90
10459;DHT22;5277;48.722;8.736;2023-06-24T05:21:27;14.30;99.90
10459;DHT22;5277;48.722;8.736;2023-06-24T05:23:52;14.40;99.90
10459;DHT22;5277;48.722;8.736;2023-06-24T05:26:18;14.50;99.90
10459;DHT22;5277;48.722;8.736;2023-06-24T05:28:43;14.50;99.90
10459;DHT22;5277;48.722;8.736;2023-06-24T05:31:09;14.60;99.90
10459;DHT22;5277;48.722;8.736;2023-06-24T05:33:34;14.80;99.90
10459;DHT22;5277;48.722;8.736;2023-06-24T05:36:00;14.90;99.90
10459;DHT22;5277;48.722;8.736;2023-06-24T05:38:25;15.10;99.90
10459;DHT22;5277;48.722;8.736;2023-06-24T05:40:51;15.20;99.90
10459;DHT22;5277;48.722;8.736;2023-06-24T05:43:16;15.30;99.90
10459;DHT22;5277;48.722;8.736;2023-06-24T05:45:42;15.50;99.90
10459;DHT22;5277;48.722;8.736;2023-06-24T05:48:08;15.70;99.90
10459;DHT22;5277;48.722;8.736;2023-06-24T05:50:34;15.80;99.90
10459;DHT22;5277;48.722;8.736;2023-06-24T05:52:59;16.00;99.90
10459;DHT22;5277;48.722;8.736;2023-06-24T05:55:25;16.10;99.90
10459;DHT22;5277;48.722;8.736;2023-06-24T05:57:50;16.40;99.90
10459;DHT22;5277;48.722;8.736;2023-06-24T06:00:18;16.70;99.90
10459;DHT22;5277;48.722;8.736;2023-06-24T06:02:43;16.90;99.90
10459;DHT22;5277;48.722;8.736;2023-06-24T06:05:09;17.00;99.90
10459;DHT22;5277;48.722;8.736;2023-06-24T06:07:35;17.20;99.90
10459;DHT22;5277;48.722;8.736;2023-06-24T06:10:03;17.50;99.90
10459;DHT22;5277;48.722;8.736;2023-06-24T06:12:28;17.80;99.90
10459;DHT22;5277;48.722;8.736;2023-06-24T06:14:54;17.80;98.80
10459;DHT22;5277;48.722;8.736;2023-06-24T06:17:19;17.80;99.10
10459;DHT22;5277;48.722;8.736;2023-06-24T06:19:45;18.00;98.90
10459;DHT22;5277;48.722;8.736;2023-06-24T06:22:15;18.20;98.50
10459;DHT22;5277;48.722;8.736;2023-06-24T06:24:41;18.30;98.10
10459;DHT22;5277;48.722;8.736;2023-06-24T06:27:10;18.30;97.60
10459;DHT22;5277;48.722;8.736;2023-06-24T06:29:39;18.50;97.40
10459;DHT22;5277;48.722;8.736;2023-06-24T06:32:04;18.70;97.30
10459;DHT22;5277;48.722;8.736;2023-06-24T06:34:30;19.00;96.90
10459;DHT22;5277;48.722;8.736;2023-06-24T06:36:56;19.20;96.80
10459;DHT22;5277;48.722;8.736;2023-06-24T06:39:21;19.30;96.40
10459;DHT22;5277;48.722;8.736;2023-06-24T06:41:47;19.50;96.40
10459;DHT22;5277;48.722;8.736;2023-06-24T06:44:15;19.90;96.40
10459;DHT22;5277;48.722;8.736;2023-06-24T06:46:41;20.00;95.80
10459;DHT22;5277;48.722;8.736;2023-06-24T06:49:06;20.30;95.00
10459;DHT22;5277;48.722;8.736;2023-06-24T06:51:32;20.50;94.60
10459;DHT22;5277;48.722;8.736;2023-06-24T06:53:57;20.60;94.90
10459;DHT22;5277;48.722;8.736;2023-06-24T06:56:24;20.80;94.30
10459;DHT22;5277;48.722;8.736;2023-06-24T06:58:52;20.80;94.00
10459;DHT22;5277;48.722;8.736;2023-06-24T07:01:18;21.10;93.80
10459;DHT22;5277;48.722;8.736;2023-06-24T07:03:44;21.30;93.80
10459;DHT22;5277;48.722;8.736;2023-06-24T07:06:10;21.50;93.80
10459;DHT22;5277;48.722;8.736;2023-06-24T07:08:35;21.80;93.40
10459;DHT22;5277;48.722;8.736;2023-06-24T07:11:02;21.80;92.30
10459;DHT22;5277;48.722;8.736;2023-06-24T07:13:28;22.10;91.50
10459;DHT22;5277;48.722;8.736;2023-06-24T07:15:53;22.30;91.20
10459;DHT22;5277;48.722;8.736;2023-06-24T07:18:19;22.50;90.30
10459;DHT22;5277;48.722;8.736;2023-06-24T07:20:46;22.50;90.00
10459;DHT22;5277;48.722;8.736;2023-06-24T07:23:11;22.70;90.10
10459;DHT22;5277;48.722;8.736;2023-06-24T07:25:37;22.90;88.50
10459;DHT22;5277;48.722;8.736;2023-06-24T07:28:03;23.00;88.20
10459;DHT22;5277;48.722;8.736;2023-06-24T07:30:28;22.90;88.40
10459;DHT22;5277;48.722;8.736;2023-06-24T07:32:54;23.10;88.50
10459;DHT22;5277;48.722;8.736;2023-06-24T07:35:20;23.30;86.50
10459;DHT22;5277;48.722;8.736;2023-06-24T07:37:45;23.50;86.40
10459;DHT22;5277;48.722;8.736;2023-06-24T07:40:11;23.50;86.80
10459;DHT22;5277;48.722;8.736;2023-06-24T07:42:37;23.50;85.20
10459;DHT22;5277;48.722;8.736;2023-06-24T07:45:02;23.70;84.10
10459;DHT22;5277;48.722;8.736;2023-06-24T07:47:28;23.90;82.40
10459;DHT22;5277;48.722;8.736;2023-06-24T07:49:54;23.90;82.40
10459;DHT22;5277;48.722;8.736;2023-06-24T07:52:19;24.20;80.20
10459;DHT22;5277;48.722;8.736;2023-06-24T07:54:45;24.30;81.10
10459;DHT22;5277;48.722;8.736;2023-06-24T07:57:10;24.20;81.00
10459;DHT22;5277;48.722;8.736;2023-06-24T07:59:36;24.40;80.30
10459;DHT22;5277;48.722;8.736;2023-06-24T08:02:01;24.30;78.60
10459;DHT22;5277;48.722;8.736;2023-06-24T08:04:27;24.60;78.20
10459;DHT22;5277;48.722;8.736;2023-06-24T08:06:53;24.80;77.40
10459;DHT22;5277;48.722;8.736;2023-06-24T08:09:18;24.70;76.00
10459;DHT22;5277;48.722;8.736;2023-06-24T08:11:44;24.80;77.50
10459;DHT22;5277;48.722;8.736;2023-06-24T08:14:10;25.00;77.90
10459;DHT22;5277;48.722;8.736;2023-06-24T08:16:35;25.20;76.00
10459;DHT22;5277;48.722;8.736;2023-06-24T08:19:01;25.40;76.40
10459;DHT22;5277;48.722;8.736;2023-06-24T08:21:27;25.60;74.40
10459;DHT22;5277;48.722;8.736;2023-06-24T08:23:52;25.80;74.10
10459;DHT22;5277;48.722;8.736;2023-06-24T08:26:20;26.00;73.90
10459;DHT22;5277;48.722;8.736;2023-06-24T08:28:47;26.20;72.60
10459;DHT22;5277;48.722;8.736;2023-06-24T08:31:12;26.40;71.10
10459;DHT22;5277;48.722;8.736;2023-06-24T08:33:38;26.70;70.10
10459;DHT22;5277;48.722;8.736;2023-06-24T08:36:04;26.80;68.60
10459;DHT22;5277;48.722;8.736;2023-06-24T08:38:29;26.80;68.60
10459;DHT22;5277;48.722;8.736;2023-06-24T08:40:56;27.10;66.80
10459;DHT22;5277;48.722;8.736;2023-06-24T08:43:21;27.00;66.80
10459;DHT22;5277;48.722;8.736;2023-06-24T08:45:47;27.10;66.30
10459;DHT22;5277;48.722;8.736;2023-06-24T08:48:13;27.20;66.20
10459;DHT22;5277;48.722;8.736;2023-06-24T08:50:50;27.40;65.10
10459;DHT22;5277;48.722;8.736;2023-06-24T08:53:18;27.40;63.70
10459;DHT22;5277;48.722;8.736;2023-06-24T08:55:45;27.40;64.60
10459;DHT22;5277;48.722;8.736;2023-06-24T08:58:12;27.50;64.20
10459;DHT22;5277;48.722;8.736;2023-06-24T09:00:38;27.60;63.10
10459;DHT22;5277;48.722;8.736;2023-06-24T09:03:03;27.80;62.70
10459;DHT22;5277;48.722;8.736;2023-06-24T09:05:29;27.90;61.10
10459;DHT22;5277;48.722;8.736;2023-06-24T09:07:54;27.90;60.00
10459;DHT22;5277;48.722;8.736;2023-06-24T09:10:36;28.10;60.90
10459;DHT22;5277;48.722;8.736;2023-06-24T09:13:04;28.20;60.90
10459;DHT22;5277;48.722;8.736;2023-06-24T09:15:36;28.30;59.70
10459;DHT22;5277;48.722;8.736;2023-06-24T09:18:02;28.50;56.90
10459;DHT22;5277;48.722;8.736;2023-06-24T09:20:29;28.50;54.90
10459;DHT22;5277;48.722;8.736;2023-06-24T09:23:02;28.70;53.70
10459;DHT22;5277;48.722;8.736;2023-06-24T09:25:28;28.60;53.80
10459;DHT22;5277;48.722;8.736;2023-06-24T09:27:54;28.60;54.70
10459;DHT22;5277;48.722;8.736;2023-06-24T09:30:22;28.60;53.80
10459;DHT22;5277;48.722;8.736;2023-06-24T09:32:48;28.40;53.90
10459;DHT22;5277;48.722;8.736;2023-06-24T09:35:19;28.70;53.70
10459;DHT22;5277;48.722;8.736;2023-06-24T09:37:51;28.90;53.20
10459;DHT22;5277;48.722;8.736;2023-06-24T09:40:18;28.90;52.70
10459;DHT22;5277;48.722;8.736;2023-06-24T09:43:02;28.90;52.20
10459;DHT22;5277;48.722;8.736;2023-06-24T09:45:29;29.00;51.60
10459;DHT22;5277;48.722;8.736;2023-06-24T09:47:55;29.20;51.20
10459;DHT22;5277;48.722;8.736;2023-06-24T09:50:22;29.30;52.10
10459;DHT22;5277;48.722;8.736;2023-06-24T09:52:49;29.30;50.70
10459;DHT22;5277;48.722;8.736;2023-06-24T09:55:16;29.50;51.00
10459;DHT22;5277;48.722;8.736;2023-06-24T09:57:45;29.60;49.20
10459;DHT22;5277;48.722;8.736;2023-06-24T10:00:15;29.40;46.50
10459;DHT22;5277;48.722;8.736;2023-06-24T10:02:42;29.40;45.40
10459;DHT22;5277;48.722;8.736;2023-06-24T10:05:08;29.50;45.70
10459;DHT22;5277;48.722;8.736;2023-06-24T10:07:34;29.40;46.50
10459;DHT22;5277;48.722;8.736;2023-06-24T10:10:03;29.30;46.40
10459;DHT22;5277;48.722;8.736;2023-06-24T10:12:29;29.50;46.90
10459;DHT22;5277;48.722;8.736;2023-06-24T10:14:55;29.60;45.50
10459;DHT22;5277;48.722;8.736;2023-06-24T10:17:20;29.90;44.30
10459;DHT22;5277;48.722;8.736;2023-06-24T10:19:46;30.20;44.50
10459;DHT22;5277;48.722;8.736;2023-06-24T10:22:12;30.30;44.00
10459;DHT22;5277;48.722;8.736;2023-06-24T10:24:39;30.70;44.30
10459;DHT22;5277;48.722;8.736;2023-06-24T10:27:08;31.00;43.40
10459;DHT22;5277;48.722;8.736;2023-06-24T10:29:38;31.30;43.30
10459;DHT22;5277;48.722;8.736;2023-06-24T10:32:07;31.40;42.80
10459;DHT22;5277;48.722;8.736;2023-06-24T10:34:41;31.50;42.00
10459;DHT22;5277;48.722;8.736;2023-06-24T10:37:18;31.70;41.70
10459;DHT22;5277;48.722;8.736;2023-06-24T10:39:55;31.30;43.60
10459;DHT22;5277;48.722;8.736;2023-06-24T10:42:39;30.80;41.90
10459;DHT22;5277;48.722;8.736;2023-06-24T10:47:39;30.80;43.90
10459;DHT22;5277;48.722;8.736;2023-06-24T10:50:06;31.20;43.10
10459;DHT22;5277;48.722;8.736;2023-06-24T10:52:32;31.70;43.10
10459;DHT22;5277;48.722;8.736;2023-06-24T10:55:03;32.10;41.60
10459;DHT22;5277;48.722;8.736;2023-06-24T10:57:28;32.00;40.40
10459;DHT22;5277;48.722;8.736;2023-06-24T10:59:55;32.10;40.50
10459;DHT22;5277;48.722;8.736;2023-06-24T11:02:23;31.80;42.20
10459;DHT22;5277;48.722;8.736;2023-06-24T11:04:50;31.70;41.50
10459;DHT22;5277;48.722;8.736;2023-06-24T11:07:21;31.40;42.60
10459;DHT22;5277;48.722;8.736;2023-06-24T11:10:02;31.00;42.80
10459;DHT22;5277;48.722;8.736;2023-06-24T11:12:34;31.10;41.20
10459;DHT22;5277;48.722;8.736;2023-06-24T11:15:05;31.20;41.40
10459;DHT22;5277;48.722;8.736;2023-06-24T11:17:32;31.50;41.50
10459;DHT22;5277;48.722;8.736;2023-06-24T11:19:58;32.00;38.90
10459;DHT22;5277;48.722;8.736;2023-06-24T11:22:25;32.40;40.80
10459;DHT22;5277;48.722;8.736;2023-06-24T11:24:51;33.00;41.40
10459;DHT22;5277;48.722;8.736;2023-06-24T11:27:24;33.50;38.90
10459;DHT22;5277;48.722;8.736;2023-06-24T11:29:52;34.20;38.10
10459;DHT22;5277;48.722;8.736;2023-06-24T11:32:18;34.30;38.00
10459;DHT22;5277;48.722;8.736;2023-06-24T11:34:44;34.90;36.90
10459;DHT22;5277;48.722;8.736;2023-06-24T11:37:17;34.80;34.20
10459;DHT22;5277;48.722;8.736;2023-06-24T11:39:44;34.90;34.90
10459;DHT22;5277;48.722;8.736;2023-06-24T11:42:10;35.10;34.40
10459;DHT22;5277;48.722;8.736;2023-06-24T11:44:41;35.60;34.40
10459;DHT22;5277;48.722;8.736;2023-06-24T11:47:10;35.90;33.90
10459;DHT22;5277;48.722;8.736;2023-06-24T11:49:56;36.10;34.50
10459;DHT22;5277;48.722;8.736;2023-06-24T11:54:59;35.90;32.50
10459;DHT22;5277;48.722;8.736;2023-06-24T11:57:54;35.40;35.00
10459;DHT22;5277;48.722;8.736;2023-06-24T12:00:21;35.00;35.20
10459;DHT22;5277;48.722;8.736;2023-06-24T12:02:50;35.50;35.80
10459;DHT22;5277;48.722;8.736;2023-06-24T12:05:32;35.80;34.90
10459;DHT22;5277;48.722;8.736;2023-06-24T12:08:05;36.30;34.80
10459;DHT22;5277;48.722;8.736;2023-06-24T12:10:32;36.60;33.90
10459;DHT22;5277;48.722;8.736;2023-06-24T12:12:59;36.20;32.90
10459;DHT22;5277;48.722;8.736;2023-06-24T12:15:26;36.30;32.60
10459;DHT22;5277;48.722;8.736;2023-06-24T12:17:52;36.60;33.50
10459;DHT22;5277;48.722;8.736;2023-06-24T12:20:18;36.80;31.30
10459;DHT22;5277;48.722;8.736;2023-06-24T12:22:45;36.60;31.90
10459;DHT22;5277;48.722;8.736;2023-06-24T12:25:10;36.80;31.00
10459;DHT22;5277;48.722;8.736;2023-06-24T12:27:37;36.80;33.30
10459;DHT22;5277;48.722;8.736;2023-06-24T12:30:03;37.20;31.50
10459;DHT22;5277;48.722;8.736;2023-06-24T12:32:29;37.40;30.60
10459;DHT22;5277;48.722;8.736;2023-06-24T12:34:54;37.40;29.60
10459;DHT22;5277;48.722;8.736;2023-06-24T12:37:20;37.80;29.80
10459;DHT22;5277;48.722;8.736;2023-06-24T12:39:45;37.80;29.40
10459;DHT22;5277;48.722;8.736;2023-06-24T12:42:11;37.70;31.40
10459;DHT22;5277;48.722;8.736;2023-06-24T12:44:37;37.70;30.10
10459;DHT22;5277;48.722;8.736;2023-06-24T12:47:03;37.50;30.00
10459;DHT22;5277;48.722;8.736;2023-06-24T12:49:29;37.70;30.00
10459;DHT22;5277;48.722;8.736;2023-06-24T12:51:54;37.80;30.50
10459;DHT22;5277;48.722;8.736;2023-06-24T12:54:20;37.60;30.50
10459;DHT22;5277;48.722;8.736;2023-06-24T12:56:45;37.80;29.40
10459;DHT22;5277;48.722;8.736;2023-06-24T12:59:11;38.00;30.20
10459;DHT22;5277;48.722;8.736;2023-06-24T13:01:36;37.90;29.00
10459;DHT22;5277;48.722;8.736;2023-06-24T13:04:02;37.00;29.00
10459;DHT22;5277;48.722;8.736;2023-06-24T13:06:28;36.20;29.80
10459;DHT22;5277;48.722;8.736;2023-06-24T13:08:53;35.40;31.70
10459;DHT22;5277;48.722;8.736;2023-06-24T13:11:19;34.50;31.40
10459;DHT22;5277;48.722;8.736;2023-06-24T13:13:44;33.60;31.80
10459;DHT22;5277;48.722;8.736;2023-06-24T13:16:10;32.70;35.40
10459;DHT22;5277;48.722;8.736;2023-06-24T13:18:36;32.10;35.80
10459;DHT22;5277;48.722;8.736;2023-06-24T13:21:01;31.60;35.40
10459;DHT22;5277;48.722;8.736;2023-06-24T13:23:27;31.20;37.10
10459;DHT22;5277;48.722;8.736;2023-06-24T13:25:52;30.60;36.20
10459;DHT22;5277;48.722;8.736;2023-06-24T13:28:18;30.30;37.10
10459;DHT22;5277;48.722;8.736;2023-06-24T13:30:44;30.00;35.80
10459;DHT22;5277;48.722;8.736;2023-06-24T13:33:09;29.60;38.00
10459;DHT22;5277;48.722;8.736;2023-06-24T13:35:35;29.30;38.90
10459;DHT22;5277;48.722;8.736;2023-06-24T13:38:00;29.10;38.60
10459;DHT22;5277;48.722;8.736;2023-06-24T13:40:26;28.70;37.20
10459;DHT22;5277;48.722;8.736;2023-06-24T13:42:52;28.60;41.90
10459;DHT22;5277;48.722;8.736;2023-06-24T13:45:17;28.40;41.80
10459;DHT22;5277;48.722;8.736;2023-06-24T13:47:43;28.30;42.40
10459;DHT22;5277;48.722;8.736;2023-06-24T13:50:09;28.30;41.80
10459;DHT22;5277;48.722;8.736;2023-06-24T13:52:35;28.20;41.70
10459;DHT22;5277;48.722;8.736;2023-06-24T13:55:00;28.10;43.80
10459;DHT22;5277;48.722;8.736;2023-06-24T13:57:26;28.20;43.20
10459;DHT22;5277;48.722;8.736;2023-06-24T13:59:51;28.10;44.10
10459;DHT22;5277;48.722;8.736;2023-06-24T14:02:17;27.90;41.40
10459;DHT22;5277;48.722;8.736;2023-06-24T14:04:43;27.80;41.00
10459;DHT22;5277;48.722;8.736;2023-06-24T14:07:09;27.80;43.40
10459;DHT22;5277;48.722;8.736;2023-06-24T14:09:35;27.70;45.40
10459;DHT22;5277;48.722;8.736;2023-06-24T14:12:01;27.50;47.00
10459;DHT22;5277;48.722;8.736;2023-06-24T14:14:26;27.40;46.80
10459;DHT22;5277;48.722;8.736;2023-06-24T14:16:52;27.30;43.30
10459;DHT22;5277;48.722;8.736;2023-06-24T14:19:18;27.20;42.60
10459;DHT22;5277;48.722;8.736;2023-06-24T14:21:44;27.20;41.70
10459;DHT22;5277;48.722;8.736;2023-06-24T14:24:09;27.20;45.10
10459;DHT22;5277;48.722;8.736;2023-06-24T14:26:36;27.10;44.60
10459;DHT22;5277;48.722;8.736;2023-06-24T14:29:02;27.00;43.60
10459;DHT22;5277;48.722;8.736;2023-06-24T14:31:28;26.90;46.40
10459;DHT22;5277;48.722;8.736;2023-06-24T14:33:53;26.90;45.60
10459;DHT22;5277;48.722;8.736;2023-06-24T14:36:19;26.90;46.20
10459;DHT22;5277;48.722;8.736;2023-06-24T14:38:45;26.80;45.30
10459;DHT22;5277;48.722;8.736;2023-06-24T14:41:10;26.80;44.70
10459;DHT22;5277;48.722;8.736;2023-06-24T14:43:36;26.80;44.40
10459;DHT22;5277;48.722;8.736;2023-06-24T14:46:02;26.80;46.60
10459;DHT22;5277;48.722;8.736;2023-06-24T14:48:27;26.70;47.30
10459;DHT22;5277;48.722;8.736;2023-06-24T14:50:53;26.50;48.20
10459;DHT22;5277;48.722;8.736;2023-06-24T14:53:19;26.40;48.90
10459;DHT22;5277;48.722;8.736;2023-06-24T14:55:45;26.30;45.70
10459;DHT22;5277;48.722;8.736;2023-06-24T14:58:11;26.20;46.30
10459;DHT22;5277;48.722;8.736;2023-06-24T15:00:36;26.10;44.30
10459;DHT22;5277;48.722;8.736;2023-06-24T15:03:02;26.00;46.40
10459;DHT22;5277;48.722;8.736;2023-06-24T15:05:27;26.00;46.10
10459;DHT22;5277;48.722;8.736;2023-06-24T15:07:53;25.90;45.10
10459;DHT22;5277;48.722;8.736;2023-06-24T15:10:19;25.90;45.80
10459;DHT22;5277;48.722;8.736;2023-06-24T15:12:44;25.90;47.70
10459;DHT22;5277;48.722;8.736;2023-06-24T15:15:10;25.80;48.00
10459;DHT22;5277;48.722;8.736;2023-06-24T15:17:36;25.80;48.20
10459;DHT22;5277;48.722;8.736;2023-06-24T15:20:07;25.70;46.70
10459;DHT22;5277;48.722;8.736;2023-06-24T15:22:33;25.70;47.30
10459;DHT22;5277;48.722;8.736;2023-06-24T15:24:58;25.60;50.30
10459;DHT22;5277;48.722;8.736;2023-06-24T15:27:24;25.50;47.00
10459;DHT22;5277;48.722;8.736;2023-06-24T15:29:50;25.60;48.90
10459;DHT22;5277;48.722;8.736;2023-06-24T15:32:15;25.60;49.60
10459;DHT22;5277;48.722;8.736;2023-06-24T15:34:41;25.60;51.80
10459;DHT22;5277;48.722;8.736;2023-06-24T15:37:06;25.50;49.30
10459;DHT22;5277;48.722;8.736;2023-06-24T15:39:32;25.40;47.50
10459;DHT22;5277;48.722;8.736;2023-06-24T15:41:57;25.40;51.60
10459;DHT22;5277;48.722;8.736;2023-06-24T15:44:23;25.40;48.30
10459;DHT22;5277;48.722;8.736;2023-06-24T15:46:49;25.40;49.50
10459;DHT22;5277;48.722;8.736;2023-06-24T15:49:15;25.40;51.70
10459;DHT22;5277;48.722;8.736;2023-06-24T15:51:41;25.40;50.90
10459;DHT22;5277;48.722;8.736;2023-06-24T15:54:07;25.40;51.90
10459;DHT22;5277;48.722;8.736;2023-06-24T15:56:32;25.30;51.10
10459;DHT22;5277;48.722;8.736;2023-06-24T15:58:58;25.20;49.30